createdAt,value
2018-06-04T00:01:54.262Z,64.02
2018-06-04T00:04:22.602Z,64.37
2018-06-04T00:06:50.933Z,64.27
2018-06-04T00:09:19.337Z,65.37
2018-06-04T00:11:47.680Z,65.21
2018-06-04T00:14:15.431Z,65.38
2018-06-04T00:16:43.771Z,65.98
2018-06-04T00:19:12.106Z,65.85
2018-06-04T00:21:40.581Z,66.25
2018-06-04T00:24:09.368Z,66.38
2018-06-04T00:26:37.130Z,66.73
2018-06-04T00:29:06.047Z,66.68
2018-06-04T00:31:34.378Z,66.54
2018-06-04T00:34:02.129Z,67.13
2018-06-04T00:36:31.055Z,67.43
2018-06-04T00:38:59.379Z,67.63
2018-06-04T00:41:27.717Z,67.90
2018-06-04T00:43:57.067Z,67.72
2018-06-04T00:46:24.822Z,68.03
2018-06-04T00:48:53.732Z,68.10
2018-06-04T00:51:22.375Z,68.35
2018-06-04T00:53:50.700Z,68.17
2018-06-04T00:56:18.457Z,68.76
2018-06-04T00:58:46.808Z,68.98
2018-06-04T01:01:15.154Z,68.94
2018-06-04T01:03:44.073Z,69.04
2018-06-04T01:06:11.825Z,68.97
2018-06-04T01:08:40.149Z,68.72
2018-06-04T01:11:09.063Z,68.41
2018-06-04T01:13:36.806Z,68.31
2018-06-04T01:16:05.141Z,68.57
2018-06-04T01:18:34.058Z,68.67
2018-06-04T01:21:02.383Z,69.09
2018-06-04T01:23:30.717Z,69.56
2018-06-04T01:25:59.061Z,69.71
2018-06-04T01:28:27.400Z,70.36
2018-06-04T01:30:55.742Z,70.71
2018-06-04T01:33:24.069Z,70.78
2018-06-04T01:35:52.405Z,71.05
2018-06-04T01:38:20.157Z,71.31
2018-06-04T01:40:49.073Z,71.41
2018-06-04T01:43:17.410Z,71.79
2018-06-04T01:45:45.747Z,71.49
2018-06-04T01:48:13.513Z,72.05
2018-06-04T01:50:41.840Z,72.19
2018-06-04T01:53:10.754Z,72.33
2018-06-04T01:55:39.082Z,72.46
2018-06-04T01:58:06.834Z,72.72
2018-06-04T02:00:35.175Z,73.08
2018-06-04T02:03:04.089Z,73.48
2018-06-04T02:05:32.750Z,73.49
2018-06-04T02:08:01.092Z,73.41
2018-06-04T02:10:29.418Z,73.59
2018-06-04T02:12:57.166Z,73.53
2018-06-04T02:15:26.079Z,73.56
2018-06-04T02:17:54.748Z,73.58
2018-06-04T02:20:23.083Z,73.63
2018-06-04T02:22:51.421Z,73.63
2018-06-04T02:25:19.584Z,73.88
2018-06-04T02:27:47.508Z,73.87
2018-06-04T02:30:15.843Z,73.98
2018-06-04T02:32:44.757Z,74.00
2018-06-04T02:35:12.514Z,74.22
2018-06-04T02:37:41.425Z,74.11
2018-06-04T02:40:09.173Z,74.32
2018-06-04T02:42:38.086Z,74.36
2018-06-04T02:45:05.846Z,74.49
2018-06-04T02:47:34.176Z,74.40
2018-06-04T02:50:03.201Z,74.28
2018-06-04T02:52:30.931Z,74.34
2018-06-04T02:54:59.170Z,74.42
2018-06-04T02:57:27.775Z,74.12
2018-06-04T02:59:56.412Z,74.02
2018-06-04T03:02:24.743Z,73.86
2018-06-04T03:04:53.081Z,73.69
2018-06-04T03:07:21.423Z,73.46
2018-06-04T03:09:49.753Z,73.10
2018-06-04T03:12:18.080Z,72.89
2018-06-04T03:14:46.419Z,72.71
2018-06-04T03:17:14.757Z,72.78
2018-06-04T03:19:42.514Z,72.92
2018-06-04T03:22:10.942Z,73.05
2018-06-04T03:24:39.768Z,72.95
2018-06-04T03:27:07.517Z,72.77
2018-06-04T03:29:36.431Z,72.57
2018-06-04T03:32:04.190Z,72.62
2018-06-04T03:34:33.107Z,72.61
2018-06-04T03:37:01.462Z,72.35
2018-06-04T03:39:29.233Z,72.38
2018-06-04T03:41:58.154Z,72.37
2018-06-04T03:44:26.489Z,72.37
2018-06-04T03:46:54.841Z,72.39
2018-06-04T03:49:23.624Z,72.38
2018-06-04T03:51:52.019Z,72.36
2018-06-04T03:54:20.184Z,72.70
2018-06-04T03:56:48.107Z,72.84
2018-06-04T03:59:17.025Z,73.01
2018-06-04T04:01:45.373Z,73.25
2018-06-04T04:04:13.124Z,73.14
2018-06-04T04:06:42.031Z,73.70
2018-06-04T04:09:10.359Z,73.62
2018-06-04T04:11:38.118Z,73.69
2018-06-04T04:14:06.446Z,73.81
2018-06-04T04:16:34.773Z,74.08
2018-06-04T04:19:03.679Z,74.34
2018-06-04T04:21:32.015Z,74.49
2018-06-04T04:24:00.347Z,74.53
2018-06-04T04:26:28.099Z,74.45
2018-06-04T04:28:57.023Z,74.15
2018-06-04T04:31:25.365Z,73.88
2018-06-04T04:33:53.696Z,73.71
2018-06-04T04:36:21.451Z,73.48
2018-06-04T04:38:50.369Z,73.34
2018-06-04T04:41:18.500Z,73.31
2018-06-04T04:43:46.453Z,73.14
2018-06-04T04:46:15.531Z,73.08
2018-06-04T04:48:43.836Z,72.70
2018-06-04T04:51:12.171Z,72.43
2018-06-04T04:53:40.546Z,72.34
2018-06-04T04:56:08.303Z,72.58
2018-06-04T04:58:37.249Z,72.82
2018-06-04T05:01:05.597Z,72.68
2018-06-04T05:03:33.359Z,72.77
2018-06-04T05:06:02.274Z,72.76
2018-06-04T05:08:30.639Z,72.51
2018-06-04T05:10:58.933Z,72.12
2018-06-04T05:13:26.693Z,71.93
2018-06-04T05:15:55.631Z,71.94
2018-06-04T05:18:23.974Z,71.77
2018-06-04T05:20:52.299Z,71.35
2018-06-04T05:23:20.650Z,71.17
2018-06-04T05:25:48.975Z,70.87
2018-06-04T05:28:16.730Z,71.10
2018-06-04T05:30:45.663Z,71.12
2018-06-04T05:33:14.778Z,70.86
2018-06-04T05:35:42.329Z,70.28
2018-06-04T05:38:10.669Z,70.18
2018-06-04T05:40:39.119Z,70.31
2018-06-04T05:43:07.608Z,70.20
2018-06-04T05:45:36.042Z,69.92
2018-06-04T05:48:04.578Z,69.67
2018-06-04T05:50:32.982Z,69.47
2018-06-04T05:53:01.525Z,68.89
2018-06-04T05:55:29.906Z,68.95
2018-06-04T05:57:58.244Z,68.96
2018-06-04T06:00:26.569Z,68.79
2018-06-04T06:02:54.909Z,68.44
2018-06-04T06:05:22.663Z,68.14
2018-06-04T06:07:51.583Z,68.20
2018-06-04T06:10:20.037Z,68.15
2018-06-04T06:12:48.365Z,67.87
2018-06-04T06:15:16.703Z,67.67
2018-06-04T06:17:45.032Z,67.25
2018-06-04T06:20:13.370Z,67.01
2018-06-04T06:22:41.248Z,66.63
2018-06-04T06:25:09.520Z,66.42
2018-06-04T06:27:37.824Z,66.13
2018-06-04T06:30:06.822Z,65.92
2018-06-04T06:32:34.569Z,65.69
2018-06-04T06:35:03.573Z,65.44
2018-06-04T06:37:31.401Z,65.66
2018-06-04T06:40:00.349Z,65.43
2018-06-04T06:42:28.333Z,65.23
2018-06-04T06:44:56.466Z,64.86
2018-06-04T06:47:25.379Z,64.65
2018-06-04T06:49:53.188Z,64.45
2018-06-04T06:52:22.103Z,64.28
2018-06-04T06:54:50.705Z,64.26
2018-06-04T06:57:18.915Z,64.37
2018-06-04T06:59:48.486Z,64.28
2018-06-04T07:02:16.237Z,63.94
2018-06-04T07:04:45.148Z,64.03
2018-06-04T07:07:13.486Z,64.01
2018-06-04T07:09:41.831Z,63.89
2018-06-04T07:12:10.161Z,63.74
2018-06-04T07:14:38.742Z,63.42
2018-06-04T07:17:06.855Z,63.90
2018-06-04T07:19:36.214Z,63.79
2018-06-04T07:22:04.571Z,63.23
2018-06-04T07:24:32.903Z,62.64
2018-06-04T07:27:00.656Z,62.20
2018-06-04T07:29:29.014Z,61.39
2018-06-04T07:31:57.350Z,61.53
2018-06-04T07:34:26.267Z,61.38
2018-06-04T07:36:54.604Z,61.33
2018-06-04T07:39:22.928Z,61.38
2018-06-04T07:41:56.153Z,61.02
2018-06-04T07:44:25.139Z,60.79
2018-06-04T07:46:53.430Z,60.63
2018-06-04T07:49:21.786Z,59.42
2018-06-04T07:51:49.566Z,59.56
2018-06-04T07:54:18.486Z,59.92
2018-06-04T07:56:46.235Z,60.28
2018-06-04T07:59:14.561Z,59.90
2018-06-04T08:01:47.543Z,59.91
2018-06-04T08:04:15.113Z,59.65
2018-06-04T08:06:42.870Z,58.64
2018-06-04T08:09:11.784Z,58.96
2018-06-04T08:11:40.127Z,59.08
2018-06-04T08:14:09.094Z,58.44
2018-06-04T08:16:37.659Z,57.98
2018-06-04T08:19:06.002Z,58.08
2018-06-04T08:21:34.333Z,58.45
2018-06-04T08:24:02.710Z,58.93
2018-06-04T08:26:30.630Z,58.86
2018-06-04T08:28:59.337Z,58.92
2018-06-04T08:31:27.800Z,58.68
2018-06-04T08:33:56.110Z,58.48
2018-06-04T08:36:23.850Z,58.10
2018-06-04T08:38:52.760Z,57.58
2018-06-04T08:41:20.502Z,57.53
2018-06-04T08:43:49.424Z,58.11
2018-06-04T08:46:17.164Z,57.04
2018-06-04T08:48:45.490Z,56.77
2018-06-04T08:51:14.416Z,56.81
2018-06-04T08:53:42.414Z,57.50
2018-06-04T08:56:10.954Z,57.79
2018-06-04T08:58:39.432Z,57.15
2018-06-04T09:01:07.772Z,56.91
2018-06-04T09:03:36.127Z,57.17
2018-06-04T09:06:04.465Z,57.16
2018-06-04T09:08:32.820Z,57.24
2018-06-04T09:11:01.157Z,57.61
2018-06-04T09:13:29.513Z,57.62
2018-06-04T09:15:57.844Z,58.33
2018-06-04T09:18:25.601Z,57.35
2018-06-04T09:20:53.938Z,57.75
2018-06-04T09:23:22.292Z,58.20
2018-06-04T09:25:50.619Z,58.45
2018-06-04T09:28:19.032Z,58.33
2018-06-04T09:30:47.890Z,58.44
2018-06-04T09:33:16.216Z,58.39
2018-06-04T09:35:44.561Z,57.66
2018-06-04T09:38:12.310Z,57.57
2018-06-04T09:40:41.251Z,57.95
2018-06-04T09:43:08.997Z,58.19
2018-06-04T09:45:37.335Z,57.69
2018-06-04T09:48:05.745Z,57.84
2018-06-04T09:50:34.723Z,58.00
2018-06-04T09:53:03.104Z,58.01
2018-06-04T09:55:30.855Z,58.24
2018-06-04T09:57:59.182Z,58.02
2018-06-04T10:00:28.104Z,57.41
2018-06-04T10:02:55.853Z,56.84
2018-06-04T10:05:24.188Z,56.25
2018-06-04T10:07:53.172Z,56.47
2018-06-04T10:10:20.914Z,56.22
2018-06-04T10:12:49.804Z,55.90
2018-06-04T10:15:18.236Z,55.33
2018-06-04T10:17:46.007Z,54.61
2018-06-04T10:20:14.740Z,54.00
2018-06-04T10:22:43.270Z,53.49
2018-06-04T10:25:11.620Z,53.17
2018-06-04T10:27:39.358Z,53.18
2018-06-04T10:30:08.325Z,53.24
2018-06-04T10:32:36.680Z,54.25
2018-06-04T10:35:05.011Z,53.89
2018-06-04T10:37:33.353Z,53.38
2018-06-04T10:40:01.763Z,52.34
2018-06-04T10:42:29.580Z,53.06
2018-06-04T10:44:58.479Z,53.37
2018-06-04T10:47:26.801Z,53.09
2018-06-04T10:49:55.224Z,52.62
2018-06-04T10:52:23.642Z,52.93
2018-06-04T10:54:51.972Z,53.41
2018-06-04T10:57:20.314Z,53.44
2018-06-04T10:59:48.659Z,52.77
2018-06-04T11:02:16.985Z,51.64
2018-06-04T11:04:45.304Z,51.70
2018-06-04T11:07:13.059Z,52.28
2018-06-04T11:09:41.964Z,52.47
2018-06-04T11:12:10.293Z,52.44
2018-06-04T11:14:38.639Z,52.04
2018-06-04T11:17:06.993Z,51.90
2018-06-04T11:19:35.357Z,52.80
2018-06-04T11:22:03.644Z,52.07
2018-06-04T11:24:31.423Z,52.25
2018-06-04T11:27:00.286Z,51.15
2018-06-04T11:29:28.603Z,50.45
2018-06-04T11:31:56.352Z,50.43
2018-06-04T11:34:24.691Z,49.85
2018-06-04T11:36:53.591Z,49.82
2018-06-04T11:39:21.897Z,50.16
2018-06-04T11:41:50.293Z,49.70
2018-06-04T11:44:18.651Z,50.83
2018-06-04T11:46:46.985Z,51.49
2018-06-04T11:49:15.376Z,50.82
2018-06-04T11:51:43.115Z,50.83
2018-06-04T11:54:12.034Z,50.21
2018-06-04T11:56:39.904Z,50.64
2018-06-04T11:59:08.808Z,50.55
2018-06-04T12:01:37.127Z,50.28
2018-06-04T12:04:05.458Z,49.28
2018-06-04T12:06:33.777Z,49.13
2018-06-04T12:09:01.527Z,48.79
2018-06-04T12:11:30.465Z,48.75
2018-06-04T12:13:58.778Z,49.09
2018-06-04T12:16:27.103Z,48.45
2018-06-04T12:18:55.429Z,48.77
2018-06-04T12:21:23.764Z,49.50
2018-06-04T12:23:52.082Z,49.02
2018-06-04T12:26:20.774Z,48.78
2018-06-04T12:28:48.517Z,48.70
2018-06-04T12:31:17.416Z,47.89
2018-06-04T12:33:45.766Z,48.26
2018-06-04T12:36:14.100Z,48.89
2018-06-04T12:38:41.859Z,49.22
2018-06-04T12:41:10.772Z,48.86
2018-06-04T12:43:39.088Z,48.30
2018-06-04T12:46:07.425Z,48.09
2018-06-04T12:48:35.777Z,48.08
2018-06-04T12:51:03.526Z,47.79
2018-06-04T12:53:32.433Z,47.23
2018-06-04T12:56:01.378Z,47.05
2018-06-04T12:58:28.537Z,46.39
2018-06-04T13:00:57.447Z,46.53
2018-06-04T13:03:25.231Z,46.56
2018-06-04T13:05:54.167Z,46.23
2018-06-04T13:08:21.913Z,46.37
2018-06-04T13:10:50.820Z,46.62
2018-06-04T13:13:18.565Z,46.83
2018-06-04T13:15:47.779Z,47.35
2018-06-04T13:18:15.526Z,47.30
2018-06-04T13:20:44.444Z,47.22
2018-06-04T13:23:12.776Z,47.01
2018-06-04T13:25:41.108Z,46.79
2018-06-04T13:28:09.460Z,46.19
2018-06-04T13:30:37.202Z,46.16
2018-06-04T13:33:05.571Z,45.87
2018-06-04T13:35:34.474Z,46.25
2018-06-04T13:38:02.851Z,46.11
2018-06-04T13:40:30.614Z,46.20
2018-06-04T13:42:59.546Z,45.45
2018-06-04T13:45:27.894Z,45.30
2018-06-04T13:47:55.647Z,45.48
2018-06-04T13:50:24.594Z,45.10
2018-06-04T13:52:52.884Z,44.78
2018-06-04T13:55:20.632Z,44.23
2018-06-04T13:57:49.563Z,43.85
2018-06-04T14:00:17.888Z,44.15
2018-06-04T14:02:46.489Z,44.64
2018-06-04T14:05:14.980Z,45.04
2018-06-04T14:07:43.306Z,44.71
2018-06-04T14:10:11.776Z,44.32
2018-06-04T14:12:40.388Z,44.14
2018-06-04T14:15:08.748Z,43.41
2018-06-04T14:17:37.082Z,42.72
2018-06-04T14:20:05.404Z,43.01
2018-06-04T14:22:33.158Z,43.78
2018-06-04T14:25:02.074Z,43.86
2018-06-04T14:27:29.843Z,43.38
2018-06-04T14:29:58.727Z,43.38
2018-06-04T14:32:27.042Z,43.59
2018-06-04T14:34:55.374Z,43.07
2018-06-04T14:37:23.740Z,42.04
2018-06-04T14:39:51.446Z,41.58
2018-06-04T14:42:20.580Z,40.93
2018-06-04T14:44:48.104Z,41.05
2018-06-04T14:47:17.006Z,40.94
2018-06-04T14:49:46.454Z,40.63
2018-06-04T14:52:14.781Z,40.35
2018-06-04T14:54:42.535Z,40.17
2018-06-04T14:57:11.521Z,40.57
2018-06-04T14:59:39.971Z,41.29
2018-06-04T15:02:09.995Z,41.16
2018-06-04T15:04:36.092Z,41.02
2018-06-04T15:07:04.987Z,41.59
2018-06-04T15:09:33.342Z,42.20
2018-06-04T15:12:01.631Z,43.21
2018-06-04T15:14:29.956Z,43.56
2018-06-04T15:16:58.280Z,43.41
2018-06-04T15:19:26.592Z,43.28
2018-06-04T15:21:54.930Z,43.05
2018-06-04T15:24:23.295Z,43.12
2018-06-04T15:26:51.666Z,43.00
2018-06-04T15:29:19.987Z,42.65
2018-06-04T15:31:48.624Z,42.98
2018-06-04T15:34:17.862Z,43.03
2018-06-04T15:36:47.104Z,42.85
2018-06-04T15:39:15.527Z,43.36
2018-06-04T15:41:43.891Z,44.07
2018-06-04T15:44:12.250Z,44.72
2018-06-04T15:46:40.634Z,45.35
2018-06-04T15:49:09.022Z,45.34
2018-06-04T15:51:37.415Z,45.01
2018-06-04T15:54:06.107Z,45.04
2018-06-04T15:56:34.479Z,46.30
2018-06-04T15:59:02.852Z,47.21
2018-06-04T16:01:31.223Z,47.18
2018-06-04T16:03:59.590Z,46.77
2018-06-04T16:06:28.000Z,45.77
2018-06-04T16:08:56.392Z,46.13
2018-06-04T16:11:24.772Z,45.79
2018-06-04T16:13:53.142Z,44.36
2018-06-04T16:16:21.537Z,44.86
2018-06-04T16:18:49.998Z,45.03
2018-06-04T16:21:18.381Z,45.10
2018-06-04T16:23:47.045Z,45.21
2018-06-04T16:26:15.417Z,45.43
2018-06-04T16:28:44.464Z,45.26
2018-06-04T16:31:12.828Z,44.65
2018-06-04T16:33:41.188Z,44.57
2018-06-04T16:36:09.822Z,44.31
2018-06-04T16:38:38.187Z,44.63
2018-06-04T16:41:06.922Z,44.69
2018-06-04T16:43:35.275Z,45.15
2018-06-04T16:46:03.637Z,45.84
2018-06-04T16:48:32.001Z,46.03
2018-06-04T16:51:00.376Z,46.06
2018-06-04T16:53:28.722Z,46.17
2018-06-04T16:55:57.097Z,46.72
2018-06-04T16:58:25.539Z,47.66
2018-06-04T17:00:53.918Z,48.63
2018-06-04T17:03:22.291Z,49.18
2018-06-04T17:05:50.664Z,49.62
2018-06-04T17:08:19.180Z,50.27
2018-06-04T17:10:47.729Z,50.82
2018-06-04T17:13:15.863Z,51.01
2018-06-04T17:15:44.232Z,51.21
2018-06-04T17:18:12.604Z,51.17
2018-06-04T17:20:40.972Z,51.46
2018-06-04T17:23:09.364Z,51.71
2018-06-04T17:25:37.707Z,51.83
2018-06-04T17:28:06.066Z,51.91
2018-06-04T17:30:34.434Z,51.78
2018-06-04T17:33:03.808Z,52.35
2018-06-04T17:35:31.499Z,52.65
2018-06-04T17:38:00.145Z,53.23
2018-06-04T17:40:28.515Z,54.00
2018-06-04T17:42:56.880Z,54.61
2018-06-04T17:45:25.259Z,54.59
2018-06-04T17:47:53.631Z,54.77
2018-06-04T17:50:22.009Z,55.11
2018-06-04T17:52:50.379Z,54.90
2018-06-04T17:55:18.729Z,54.97
2018-06-04T17:57:47.099Z,54.64
2018-06-04T18:00:15.503Z,54.44
2018-06-04T18:02:43.898Z,54.36
2018-06-04T18:05:12.284Z,54.27
2018-06-04T18:07:40.768Z,54.13
2018-06-04T18:10:09.267Z,54.13
2018-06-04T18:12:37.671Z,54.37
2018-06-04T18:15:06.107Z,54.05
2018-06-04T18:17:34.449Z,54.18
2018-06-04T18:20:02.872Z,54.90
2018-06-04T18:22:31.329Z,56.09
2018-06-04T18:24:59.707Z,56.72
2018-06-04T18:27:28.069Z,58.06
2018-06-04T18:29:56.468Z,58.67
2018-06-04T18:32:24.900Z,59.25
2018-06-04T18:34:53.273Z,59.73
2018-06-04T18:37:21.668Z,60.02
2018-06-04T18:39:50.040Z,60.49
2018-06-04T18:42:18.418Z,60.87
2018-06-04T18:44:46.826Z,61.44
2018-06-04T18:47:15.188Z,61.92
2018-06-04T18:49:43.603Z,62.15
2018-06-04T18:52:11.971Z,62.60
2018-06-04T18:54:40.330Z,62.47
2018-06-04T18:57:08.706Z,62.66
2018-06-04T18:59:37.352Z,62.82
2018-06-04T19:02:05.706Z,63.01
2018-06-04T19:04:34.070Z,63.40
2018-06-04T19:07:02.473Z,63.89
2018-06-04T19:09:30.935Z,64.00
2018-06-04T19:11:59.359Z,64.29
2018-06-04T19:14:27.722Z,64.55
2018-06-04T19:16:56.076Z,64.71
2018-06-04T19:19:24.442Z,64.84
2018-06-04T19:21:53.369Z,64.76
2018-06-04T19:24:21.740Z,65.08
2018-06-04T19:26:50.115Z,65.36
2018-06-04T19:29:18.481Z,65.28
2018-06-04T19:31:46.897Z,65.60
2018-06-04T19:34:15.258Z,65.96
2018-06-04T19:36:43.642Z,66.11
2018-06-04T19:39:12.109Z,66.19
2018-06-04T19:41:40.457Z,66.27
2018-06-04T19:44:08.826Z,66.85
2018-06-04T19:46:37.197Z,67.13
2018-06-04T19:49:05.588Z,67.73
2018-06-04T19:51:33.992Z,68.32
2018-06-04T19:54:02.333Z,68.54
2018-06-04T19:56:30.716Z,68.56
2018-06-04T19:58:59.274Z,68.61
2018-06-04T20:01:27.678Z,68.50
2018-06-04T20:03:56.073Z,68.64
2018-06-04T20:06:24.453Z,68.44
2018-06-04T20:08:52.819Z,68.59
2018-06-04T20:11:21.214Z,68.92
2018-06-04T20:13:49.746Z,68.93
2018-06-04T20:16:18.133Z,69.24
2018-06-04T20:18:46.512Z,69.18
2018-06-04T20:21:14.924Z,69.62
2018-06-04T20:23:43.297Z,69.96
2018-06-04T20:26:11.831Z,70.26
2018-06-04T20:28:40.203Z,70.63
2018-06-04T20:31:08.610Z,70.61
2018-06-04T20:33:36.980Z,70.97
2018-06-04T20:36:05.357Z,70.93
2018-06-04T20:38:34.029Z,71.47
2018-06-04T20:41:02.459Z,71.70
2018-06-04T20:43:30.837Z,71.50
2018-06-04T20:45:59.248Z,71.73
2018-06-04T20:48:27.703Z,71.91
2018-06-04T20:50:56.159Z,71.97
2018-06-04T20:53:24.536Z,71.93
2018-06-04T20:55:53.254Z,72.11
2018-06-04T20:58:21.633Z,72.15
2018-06-04T21:00:50.091Z,72.12
2018-06-04T21:03:19.006Z,72.38
2018-06-04T21:05:47.442Z,72.47
2018-06-04T21:08:15.835Z,72.52
2018-06-04T21:10:44.208Z,72.99
2018-06-04T21:13:12.591Z,72.92
2018-06-04T21:15:40.995Z,73.00
2018-06-04T21:18:09.496Z,73.25
2018-06-04T21:20:37.877Z,73.27
2018-06-04T21:23:06.260Z,73.30
2018-06-04T21:25:34.871Z,73.58
2018-06-04T21:28:03.023Z,73.48
2018-06-04T21:30:31.400Z,73.75
2018-06-04T21:32:59.776Z,73.84
2018-06-04T21:35:28.177Z,73.88
2018-06-04T21:37:56.572Z,73.85
2018-06-04T21:40:24.957Z,73.71
2018-06-04T21:42:53.335Z,73.54
2018-06-04T21:45:21.713Z,73.30
2018-06-04T21:47:50.092Z,73.16
2018-06-04T21:50:18.494Z,72.81
2018-06-04T21:52:46.870Z,72.91
2018-06-04T21:55:15.261Z,72.63
2018-06-04T21:57:43.643Z,72.07
2018-06-04T22:00:12.252Z,71.55
2018-06-04T22:02:40.407Z,71.44
2018-06-04T22:05:08.789Z,71.28
2018-06-04T22:07:37.183Z,71.46
2018-06-04T22:10:05.561Z,71.35
2018-06-04T22:12:33.941Z,71.57
2018-06-04T22:15:02.315Z,71.87
2018-06-04T22:17:30.741Z,72.38
2018-06-04T22:19:59.124Z,72.53
2018-06-04T22:22:27.514Z,72.28
2018-06-04T22:24:55.896Z,72.10
2018-06-04T22:27:24.294Z,72.06
2018-06-04T22:29:52.668Z,72.16
2018-06-04T22:32:21.047Z,72.23
2018-06-04T22:34:49.431Z,72.38
2018-06-04T22:37:17.859Z,72.32
2018-06-04T22:39:46.289Z,72.09
2018-06-04T22:42:14.678Z,72.11
2018-06-04T22:44:43.055Z,71.96
2018-06-04T22:47:11.431Z,71.90
2018-06-04T22:49:40.101Z,71.92
2018-06-04T22:52:08.521Z,71.64
2018-06-04T22:54:36.904Z,71.63
2018-06-04T22:57:05.287Z,71.40
2018-06-04T22:59:33.664Z,70.92
2018-06-04T23:02:02.041Z,70.73
2018-06-04T23:04:30.653Z,70.53
2018-06-04T23:06:58.793Z,70.48
2018-06-04T23:09:27.169Z,70.71
2018-06-04T23:11:55.540Z,70.62
2018-06-04T23:14:23.906Z,70.61
2018-06-04T23:16:52.298Z,70.37
2018-06-04T23:19:20.736Z,70.17
2018-06-04T23:21:49.110Z,70.37
2018-06-04T23:24:17.499Z,70.75
2018-06-04T23:26:45.875Z,70.60
2018-06-04T23:29:14.251Z,70.38
2018-06-04T23:31:42.624Z,69.92
2018-06-04T23:34:10.990Z,69.76
2018-06-04T23:36:39.371Z,69.85
2018-06-04T23:39:07.745Z,69.61
2018-06-04T23:41:36.119Z,69.52
2018-06-04T23:44:04.874Z,69.62
2018-06-04T23:46:33.244Z,69.68
2018-06-04T23:49:02.242Z,69.44
2018-06-04T23:51:30.619Z,69.30
2018-06-04T23:53:58.994Z,69.27
2018-06-04T23:56:27.367Z,69.24
2018-06-04T23:58:55.743Z,69.49
